This is the latest recevied weather packets stored in our database for station/object HK6LRQ-20. If no packets are shown the sender has not sent any weather packets the latest 10 day(s).
| Time | Temp. | Humidity | Pressure | Rain* | Wind** | Luminosity | Snow |
|---|---|---|---|---|---|---|---|
| 1778007009 | 21.67° C | 83% | 1011 hPa | 0 mm | - | - | - |
| 1778006408 | 21.67° C | 84% | 1011 hPa | 0 mm | - | - | - |
| 1778005807 | 21.67° C | 84% | 1012 hPa | 0 mm | - | - | - |
| 1778005206 | 21.67° C | 84% | 1013 hPa | 0 mm | - | - | - |
| 1778004605 | 21.67° C | 84% | 1013 hPa | 0 mm | - | - | - |
| 1778004004 | 21.67° C | 84% | 1013 hPa | 0 mm | - | - | - |
| 1778003403 | 22.22° C | 84% | 1013 hPa | 0 mm | - | - | - |
| 1778002802 | 22.78° C | 84% | 1013 hPa | 0 mm | - | - | - |
| 1778002201 | 20° C | 92% | 1013 hPa | 0 mm | - | - | - |
| 1778001600 | 20° C | 92% | 1014 hPa | 0 mm | - | - | - |
| 1778000999 | 20.56° C | 91% | 1014 hPa | 0 mm | - | - | - |
| 1778000398 | 20° C | 93% | 1014 hPa | 0 mm | - | - | - |
| 1777999797 | 20° C | 93% | 1014 hPa | 0 mm | - | - | - |
| 1777999196 | 20° C | 94% | 1014 hPa | 0 mm | - | - | - |
| 1777998595 | 20° C | 94% | 1015 hPa | 0 mm | - | - | - |
| 1777997994 | 20° C | 94% | 1015 hPa | 0 mm | - | - | - |
| 1777997393 | 20° C | 94% | 1015 hPa | 0 mm | - | - | - |
| 1777996792 | 20° C | 94% | 1015 hPa | 0 mm | - | - | - |
| 1777996191 | 20.56° C | 94% | 1015 hPa | 0 mm | - | - | - |
| 1777995590 | 21.11° C | 94% | 1015 hPa | 0 mm | - | - | - |
| 1777994990 | 18.89° C | 99% | 1015 hPa | 0 mm | - | - | - |
| 1777994389 | 18.89° C | 99% | 1015 hPa | 0 mm | - | - | - |
| 1777993788 | 18.33° C | 10% | - | 0 mm | - | - | - |
| 1777993187 | 18.89° C | 10% | - | 0 mm | - | - | - |
| 1777992586 | 18.89° C | 10% | - | 0 mm | - | - | - |
* Rain latest hour (hover to see other rain measurements)
** Current wind speed in m/s (hover to see current wind gust speed)